createdAt,value
2019-03-30T00:02:10.045Z,86.03
2019-03-30T00:04:40.611Z,98.47
2019-03-30T00:07:11.056Z,79.87
2019-03-30T00:09:41.448Z,86.80
2019-03-30T00:12:12.026Z,81.13
2019-03-30T00:14:42.696Z,114.63
2019-03-30T00:17:13.114Z,111.93
2019-03-30T00:19:43.490Z,88.60
2019-03-30T00:22:13.971Z,70.33
2019-03-30T00:24:44.452Z,90.57
2019-03-30T00:30:59.785Z,59.20
2019-03-30T00:33:30.298Z,56.40
2019-03-30T00:36:00.786Z,87.50
2019-03-30T00:38:31.458Z,74.50
2019-03-30T00:41:02.358Z,93.73
2019-03-30T00:43:32.785Z,71.20
2019-03-30T00:46:03.165Z,90.07
2019-03-30T00:48:33.589Z,91.33
2019-03-30T00:51:04.029Z,107.60
2019-03-30T00:53:34.529Z,93.00
2019-03-30T00:56:04.856Z,60.10
2019-03-30T01:02:07.941Z,67.93
2019-03-30T01:04:38.457Z,69.67
2019-03-30T01:07:08.911Z,73.53
2019-03-30T01:09:39.396Z,70.53
2019-03-30T01:12:10.779Z,83.30
2019-03-30T01:14:41.191Z,85.40
2019-03-30T01:17:11.621Z,72.03
2019-03-30T01:19:41.909Z,68.50
2019-03-30T01:22:12.469Z,65.73
2019-03-30T01:24:43.096Z,72.63
2019-03-30T01:34:30.558Z,50.50
2019-03-30T01:37:01.047Z,70.83
2019-03-30T01:39:31.406Z,72.63
2019-03-30T01:42:01.699Z,67.37
2019-03-30T01:44:32.050Z,47.17
2019-03-30T01:47:02.387Z,72.27
2019-03-30T01:49:32.819Z,63.67
2019-03-30T01:52:03.254Z,56.07
2019-03-30T01:54:33.794Z,65.20
2019-03-30T01:57:04.419Z,64.97
2019-03-30T01:59:34.987Z,82.50
2019-03-30T02:02:05.620Z,79.23
2019-03-30T02:04:36.146Z,74.17
2019-03-30T02:07:06.587Z,74.80
2019-03-30T02:09:37.081Z,61.60
2019-03-30T02:12:07.621Z,78.03
2019-03-30T02:14:38.173Z,63.87
2019-03-30T02:17:08.669Z,66.33
2019-03-30T02:19:39.175Z,76.10
2019-03-30T02:22:09.685Z,60.03
2019-03-30T02:24:40.243Z,73.20
2019-03-30T02:27:10.784Z,58.93
2019-03-30T02:29:41.187Z,79.33
2019-03-30T02:32:11.637Z,83.67
2019-03-30T02:34:42.170Z,80.10
2019-03-30T02:37:12.714Z,74.70
2019-03-30T02:39:43.263Z,64.50
2019-03-30T02:42:13.778Z,62.20
2019-03-30T02:44:44.182Z,53.13
2019-03-30T02:47:14.644Z,77.70
2019-03-30T02:49:44.910Z,57.73
2019-03-30T02:52:15.392Z,89.87
2019-03-30T02:54:45.958Z,87.80
2019-03-30T02:57:18.457Z,77.60
2019-03-30T02:59:48.808Z,62.93
2019-03-30T03:02:19.208Z,86.97
2019-03-30T03:04:49.558Z,77.13
2019-03-30T03:07:20.004Z,71.70
2019-03-30T03:09:50.433Z,62.97
2019-03-30T03:12:21.102Z,73.93
2019-03-30T03:14:51.579Z,82.20
2019-03-30T03:17:21.976Z,81.73
2019-03-30T03:19:52.443Z,59.47
2019-03-30T03:22:23.039Z,83.27
2019-03-30T03:24:53.606Z,64.83
2019-03-30T03:27:24.164Z,59.87
2019-03-30T03:29:54.611Z,89.50
2019-03-30T03:32:25.175Z,85.07
2019-03-30T03:34:56.026Z,81.20
2019-03-30T03:37:43.285Z,96.53
2019-03-30T03:39:58.549Z,61.93
2019-03-30T03:42:29.169Z,81.67
2019-03-30T03:45:01.504Z,99.23
2019-03-30T03:47:31.972Z,96.30
2019-03-30T03:50:02.301Z,98.47
2019-03-30T03:52:32.743Z,92.57
2019-03-30T03:55:04.291Z,81.10
2019-03-30T03:57:39.060Z,46.30
2019-03-30T04:00:11.569Z,59.90
2019-03-30T04:02:45.201Z,79.10
2019-03-30T04:05:15.609Z,79.03
2019-03-30T04:07:47.754Z,75.73
2019-03-30T04:10:18.854Z,81.70
2019-03-30T04:12:50.872Z,84.50
2019-03-30T04:15:27.530Z,56.50
2019-03-30T04:17:57.882Z,82.13
2019-03-30T04:20:28.401Z,84.03
2019-03-30T04:22:59.328Z,85.90
2019-03-30T04:25:29.709Z,50.27
2019-03-30T04:28:00.038Z,97.03
2019-03-30T04:30:30.570Z,77.80
2019-03-30T04:33:01.014Z,90.27
2019-03-30T04:35:31.495Z,99.60
2019-03-30T04:38:02.035Z,92.80
2019-03-30T04:40:32.390Z,100.57
2019-03-30T04:43:02.862Z,94.10
2019-03-30T04:45:33.257Z,94.67
2019-03-30T04:48:03.601Z,91.50
2019-03-30T04:50:34.135Z,72.77
2019-03-30T04:53:04.580Z,77.67
2019-03-30T04:55:35.045Z,66.87
2019-03-30T04:58:08.907Z,53.00
2019-03-30T05:00:37.584Z,53.33
2019-03-30T05:03:08.114Z,77.73
2019-03-30T05:05:38.570Z,63.10
2019-03-30T05:08:08.997Z,63.40
2019-03-30T05:10:39.391Z,83.17
2019-03-30T05:13:09.855Z,82.87
2019-03-30T05:15:40.473Z,71.50
2019-03-30T05:18:10.967Z,61.13
2019-03-30T05:20:41.280Z,79.33
2019-03-30T05:23:11.603Z,74.17
2019-03-30T05:25:42.003Z,71.97
2019-03-30T05:28:12.400Z,73.03
2019-03-30T05:30:42.807Z,61.63
2019-03-30T05:33:14.501Z,84.13
2019-03-30T05:35:48.689Z,74.20
2019-03-30T05:38:19.215Z,76.47
2019-03-30T05:40:50.331Z,81.97
2019-03-30T05:43:20.878Z,79.20
2019-03-30T05:45:51.328Z,71.67
2019-03-30T05:48:21.655Z,54.97
2019-03-30T05:50:52.160Z,86.67
2019-03-30T05:53:22.499Z,67.23
2019-03-30T05:55:52.843Z,83.13
2019-03-30T05:58:32.234Z,64.33
2019-03-30T06:01:02.707Z,74.47
2019-03-30T06:03:33.245Z,75.33
2019-03-30T06:06:03.754Z,66.07
2019-03-30T06:08:34.282Z,48.83
2019-03-30T06:11:04.864Z,65.30
2019-03-30T06:13:35.265Z,53.80
2019-03-30T06:16:05.798Z,66.77
2019-03-30T06:18:36.419Z,58.17
2019-03-30T06:21:06.949Z,42.77
2019-03-30T06:23:37.478Z,45.00
2019-03-30T06:26:08.201Z,48.00
2019-03-30T06:28:38.709Z,43.70
2019-03-30T06:31:09.243Z,75.40
2019-03-30T06:33:39.828Z,54.10
2019-03-30T06:36:10.244Z,48.80
2019-03-30T06:38:40.807Z,30.77
2019-03-30T06:41:11.211Z,37.13
2019-03-30T06:43:41.495Z,31.80
2019-03-30T06:46:18.131Z,51.77
2019-03-30T06:48:53.070Z,41.13
2019-03-30T06:51:23.689Z,45.63
2019-03-30T06:53:54.201Z,39.40
2019-03-30T06:56:24.739Z,52.30
2019-03-30T07:02:03.630Z,42.00
2019-03-30T07:04:34.005Z,43.77
2019-03-30T07:07:04.884Z,45.47
2019-03-30T07:09:37.953Z,40.47
2019-03-30T07:12:09.205Z,49.47
2019-03-30T07:18:13.446Z,31.47
2019-03-30T07:20:44.938Z,30.37
2019-03-30T07:23:21.283Z,39.90
2019-03-30T07:25:56.057Z,31.07
2019-03-30T07:28:27.434Z,24.47
2019-03-30T07:30:59.370Z,24.87
2019-03-30T07:33:30.746Z,28.17
2019-03-30T07:36:02.195Z,29.20
2019-03-30T07:38:51.987Z,30.87
2019-03-30T07:41:22.913Z,37.27
2019-03-30T07:43:53.430Z,27.23
2019-03-30T07:46:23.884Z,19.20
2019-03-30T07:48:54.288Z,20.23
2019-03-30T07:51:24.698Z,37.60
2019-03-30T07:53:55.130Z,30.40
2019-03-30T07:56:25.558Z,28.97
2019-03-30T07:58:56.166Z,21.13
2019-03-30T08:01:26.682Z,27.90
2019-03-30T08:03:57.162Z,21.53
2019-03-30T08:06:27.666Z,25.67
2019-03-30T08:08:58.316Z,28.60
2019-03-30T08:11:28.704Z,26.87
2019-03-30T08:13:59.232Z,25.50
2019-03-30T08:16:29.964Z,21.60
2019-03-30T08:19:00.581Z,24.47
2019-03-30T08:21:31.166Z,24.47
2019-03-30T08:24:02.127Z,21.33
2019-03-30T08:26:35.517Z,26.17
2019-03-30T08:29:04.742Z,22.23
2019-03-30T08:31:35.112Z,21.27
2019-03-30T08:34:05.932Z,24.90
2019-03-30T08:36:36.458Z,24.87
2019-03-30T08:39:08.121Z,17.23
2019-03-30T08:41:38.697Z,21.83
2019-03-30T08:44:09.125Z,20.53
2019-03-30T08:46:39.660Z,24.30
2019-03-30T08:49:10.082Z,18.20
2019-03-30T08:51:41.847Z,18.93
2019-03-30T08:54:12.336Z,18.13
2019-03-30T08:56:42.779Z,16.07
2019-03-30T08:59:13.454Z,16.43
2019-03-30T09:01:43.876Z,14.70
2019-03-30T09:04:14.398Z,17.87
2019-03-30T09:06:44.814Z,12.23
2019-03-30T09:09:15.329Z,18.57
2019-03-30T09:11:45.775Z,15.03
2019-03-30T09:17:48.624Z,20.50
2019-03-30T09:20:19.133Z,16.60
2019-03-30T09:22:49.596Z,20.07
2019-03-30T09:25:19.962Z,11.67
2019-03-30T09:27:50.336Z,17.17
2019-03-30T09:30:20.790Z,13.30
2019-03-30T09:32:51.286Z,17.47
2019-03-30T09:35:21.624Z,14.83
2019-03-30T09:37:52.277Z,15.00
2019-03-30T09:40:22.833Z,15.30
2019-03-30T09:42:53.395Z,15.17
2019-03-30T09:45:23.973Z,15.90
2019-03-30T09:47:55.867Z,15.37
2019-03-30T09:50:26.393Z,16.60
2019-03-30T09:52:57.715Z,18.87
2019-03-30T09:55:28.337Z,17.07
2019-03-30T09:57:58.962Z,19.80
2019-03-30T10:00:29.565Z,17.50
2019-03-30T10:02:59.892Z,15.83
2019-03-30T10:05:30.326Z,16.30
2019-03-30T10:08:00.768Z,15.60
2019-03-30T10:10:34.067Z,18.60
2019-03-30T10:17:26.984Z,13.03
2019-03-30T10:20:04.303Z,13.07
2019-03-30T10:22:29.646Z,15.77
2019-03-30T10:25:00.285Z,16.53
2019-03-30T10:27:30.755Z,16.43
2019-03-30T10:37:06.216Z,16.33
2019-03-30T10:39:36.751Z,20.37
2019-03-30T10:42:07.059Z,16.07
2019-03-30T10:44:37.593Z,14.47
2019-03-30T10:47:08.070Z,18.53
2019-03-30T10:49:38.537Z,14.20
2019-03-30T10:52:08.945Z,14.63
2019-03-30T10:54:52.093Z,14.47
2019-03-30T10:57:11.610Z,15.87
2019-03-30T10:59:42.145Z,13.43
2019-03-30T11:02:13.199Z,13.40
2019-03-30T11:04:43.721Z,17.87
2019-03-30T11:07:14.175Z,12.73
2019-03-30T11:09:44.613Z,12.73
2019-03-30T11:12:15.071Z,14.60
2019-03-30T11:14:45.467Z,16.20
2019-03-30T11:17:19.240Z,12.83
2019-03-30T11:19:48.077Z,14.73
2019-03-30T11:22:18.632Z,13.40
2019-03-30T11:24:49.014Z,12.10
2019-03-30T11:27:19.377Z,14.60
2019-03-30T11:29:49.926Z,10.90
2019-03-30T11:32:20.450Z,14.50
2019-03-30T11:34:50.860Z,12.60
2019-03-30T11:37:21.289Z,11.90
2019-03-30T11:39:51.658Z,11.30
2019-03-30T11:42:22.041Z,13.97
2019-03-30T11:44:52.510Z,11.77
2019-03-30T11:47:24.219Z,11.80
2019-03-30T11:49:54.677Z,10.90
2019-03-30T11:52:25.248Z,8.57
2019-03-30T11:54:55.780Z,8.77
2019-03-30T11:57:26.234Z,10.37
2019-03-30T11:59:56.709Z,13.07
2019-03-30T12:02:28.357Z,13.60
2019-03-30T12:04:59.206Z,12.10
2019-03-30T12:07:29.747Z,12.40
2019-03-30T12:10:00.725Z,11.30
2019-03-30T12:12:31.080Z,13.57
2019-03-30T12:15:01.507Z,11.67
2019-03-30T12:17:32.057Z,10.88
2019-03-30T12:20:02.628Z,9.50
2019-03-30T12:22:33.126Z,8.40
2019-03-30T12:25:03.677Z,8.70
2019-03-30T12:27:34.120Z,7.97
2019-03-30T12:30:04.824Z,9.67
2019-03-30T12:32:35.106Z,9.50
2019-03-30T12:35:05.930Z,11.07
2019-03-30T12:37:36.451Z,8.03
2019-03-30T12:40:07.076Z,9.33
2019-03-30T12:42:37.610Z,7.50
2019-03-30T12:45:08.860Z,5.17
2019-03-30T12:47:39.281Z,10.13
2019-03-30T12:50:09.780Z,9.30
2019-03-30T12:52:40.261Z,9.67
2019-03-30T12:55:10.667Z,10.70
2019-03-30T12:57:41.155Z,14.87
2019-03-30T13:00:11.787Z,13.33
2019-03-30T13:02:42.268Z,11.17
2019-03-30T13:05:12.777Z,10.23
2019-03-30T13:07:43.533Z,10.33
2019-03-30T13:10:14.108Z,10.20
2019-03-30T13:12:44.559Z,13.00
2019-03-30T13:15:15.042Z,10.87
2019-03-30T13:17:45.360Z,10.77
2019-03-30T13:20:15.645Z,9.07
2019-03-30T13:22:46.204Z,8.97
2019-03-30T13:25:16.714Z,9.70
2019-03-30T13:27:47.138Z,9.43
2019-03-30T13:30:17.818Z,7.57
2019-03-30T13:32:48.236Z,8.60
2019-03-30T13:35:18.661Z,7.00
2019-03-30T13:37:49.140Z,8.63
2019-03-30T13:40:19.958Z,10.13
2019-03-30T13:42:50.373Z,11.83
2019-03-30T13:45:20.750Z,13.77
2019-03-30T13:47:51.320Z,8.93
2019-03-30T13:50:21.884Z,15.40
2019-03-30T13:52:52.250Z,13.00
2019-03-30T13:55:22.852Z,9.43
2019-03-30T13:57:53.318Z,14.67
2019-03-30T14:00:23.869Z,13.10
2019-03-30T14:02:54.334Z,14.97
2019-03-30T14:05:24.850Z,10.57
2019-03-30T14:07:55.398Z,13.07
2019-03-30T14:10:25.766Z,13.47
2019-03-30T14:12:56.318Z,13.00
2019-03-30T14:15:26.768Z,15.13
2019-03-30T14:17:57.371Z,12.57
2019-03-30T14:20:27.999Z,18.47
2019-03-30T14:22:58.374Z,20.07
2019-03-30T14:25:30.439Z,23.07
2019-03-30T14:28:03.022Z,17.87
2019-03-30T14:30:33.490Z,18.50
2019-03-30T14:33:03.869Z,14.10
2019-03-30T14:35:34.417Z,16.13
2019-03-30T14:38:04.976Z,19.00
2019-03-30T14:40:35.461Z,16.97
2019-03-30T14:43:06.017Z,17.30
2019-03-30T14:49:08.828Z,17.77
2019-03-30T14:51:39.271Z,15.60
2019-03-30T14:54:09.559Z,20.77
2019-03-30T14:56:45.712Z,20.43
2019-03-30T14:59:14.432Z,19.37
2019-03-30T15:01:44.467Z,17.00
2019-03-30T15:04:15.017Z,17.67
2019-03-30T15:06:45.450Z,18.83
2019-03-30T15:09:15.825Z,19.80
2019-03-30T15:11:46.285Z,23.17
2019-03-30T15:14:16.750Z,20.37
2019-03-30T15:16:47.214Z,21.63
2019-03-30T15:19:17.654Z,20.47
2019-03-30T15:21:48.172Z,22.53
2019-03-30T15:24:18.683Z,19.50
2019-03-30T15:26:59.768Z,20.73
2019-03-30T15:29:21.192Z,25.30
2019-03-30T15:31:51.713Z,17.10
2019-03-30T15:34:22.174Z,26.73
2019-03-30T15:36:52.707Z,32.07
2019-03-30T15:39:23.181Z,34.27
2019-03-30T15:41:53.496Z,35.30
2019-03-30T15:44:23.923Z,38.67
2019-03-30T15:46:54.561Z,51.63
2019-03-30T15:49:25.165Z,44.87
2019-03-30T15:51:55.698Z,37.57
2019-03-30T15:54:26.220Z,44.50
2019-03-30T15:56:56.654Z,45.10
2019-03-30T15:59:27.386Z,40.07
2019-03-30T16:01:57.924Z,46.20
2019-03-30T16:04:28.346Z,44.60
2019-03-30T16:06:58.698Z,47.83
2019-03-30T16:09:29.069Z,47.87
2019-03-30T16:11:59.454Z,49.20
2019-03-30T16:18:05.426Z,45.10
2019-03-30T16:20:35.722Z,46.73
2019-03-30T16:23:06.369Z,54.57
2019-03-30T16:25:36.756Z,47.30
2019-03-30T16:28:07.147Z,52.43
2019-03-30T16:30:37.540Z,45.57
2019-03-30T16:33:07.937Z,56.87
2019-03-30T16:35:38.370Z,52.50
2019-03-30T16:38:08.670Z,59.60
2019-03-30T16:40:38.926Z,54.87
2019-03-30T16:43:09.235Z,63.77
2019-03-30T16:45:39.484Z,57.70
2019-03-30T16:48:09.712Z,60.80
2019-03-30T16:50:40.023Z,68.70
2019-03-30T16:53:10.435Z,63.20
2019-03-30T16:55:41.391Z,57.17
2019-03-30T16:58:11.858Z,75.13
2019-03-30T17:04:23.625Z,60.17
2019-03-30T17:06:54.045Z,67.10
2019-03-30T17:09:24.536Z,75.10
2019-03-30T17:11:55.129Z,70.87
2019-03-30T17:18:12.862Z,68.80
2019-03-30T17:20:43.202Z,61.60
2019-03-30T17:23:13.831Z,65.50
2019-03-30T17:25:44.297Z,54.60
2019-03-30T17:28:14.767Z,56.20
2019-03-30T17:30:45.347Z,64.87
2019-03-30T17:33:15.881Z,75.30
2019-03-30T17:35:46.631Z,64.27
2019-03-30T17:38:17.179Z,69.10
2019-03-30T17:40:47.871Z,64.27
2019-03-30T17:43:21.166Z,55.10
2019-03-30T17:45:51.787Z,55.20
2019-03-30T17:48:22.483Z,65.30
2019-03-30T17:50:52.950Z,59.80
2019-03-30T17:53:26.548Z,57.13
2019-03-30T17:55:56.960Z,53.40
2019-03-30T17:58:27.409Z,55.90
2019-03-30T18:00:58.032Z,47.70
2019-03-30T18:03:28.428Z,51.03
2019-03-30T18:05:58.967Z,52.87
2019-03-30T18:08:29.682Z,44.07
2019-03-30T18:11:03.892Z,43.97
2019-03-30T18:14:11.856Z,41.13
2019-03-30T18:16:44.787Z,55.03
2019-03-30T18:19:15.307Z,50.53
2019-03-30T18:22:02.230Z,59.97
2019-03-30T18:24:24.679Z,64.13
2019-03-30T18:26:57.435Z,64.10
2019-03-30T18:29:27.816Z,61.20
2019-03-30T18:31:58.916Z,56.67
2019-03-30T18:34:29.732Z,60.53
2019-03-30T18:37:00.333Z,63.23
2019-03-30T18:39:31.818Z,72.47
2019-03-30T18:42:02.322Z,56.57
2019-03-30T18:44:32.789Z,74.30
2019-03-30T18:47:04.270Z,44.40
2019-03-30T18:49:34.809Z,66.93
2019-03-30T18:52:05.342Z,82.67
2019-03-30T18:54:36.443Z,69.87
2019-03-30T18:57:06.934Z,54.70
2019-03-30T18:59:37.390Z,81.03
2019-03-30T19:02:07.840Z,70.70
2019-03-30T19:04:38.164Z,65.97
2019-03-30T19:07:08.770Z,86.83
2019-03-30T19:09:39.254Z,86.67
2019-03-30T19:12:09.722Z,71.53
2019-03-30T19:14:40.201Z,86.07
2019-03-30T19:17:10.721Z,75.33
2019-03-30T19:19:41.172Z,88.47
2019-03-30T19:22:11.736Z,64.27
2019-03-30T19:24:42.209Z,84.73
2019-03-30T19:27:12.635Z,61.47
2019-03-30T19:29:43.156Z,73.50
2019-03-30T19:32:13.482Z,72.70
2019-03-30T19:34:43.903Z,51.70
2019-03-30T19:37:14.497Z,52.80
2019-03-30T19:39:44.899Z,67.83
2019-03-30T19:42:15.930Z,71.13
2019-03-30T19:44:47.167Z,72.80
2019-03-30T19:47:17.727Z,77.27
2019-03-30T19:49:48.579Z,68.47
2019-03-30T19:52:19.137Z,71.87
2019-03-30T19:54:49.553Z,68.27
2019-03-30T19:57:19.890Z,78.73
2019-03-30T19:59:50.376Z,68.17
2019-03-30T20:02:21.024Z,69.57
2019-03-30T20:04:51.383Z,85.20
2019-03-30T20:07:21.977Z,78.80
2019-03-30T20:09:52.559Z,64.00
2019-03-30T20:12:23.127Z,68.70
2019-03-30T20:14:53.850Z,70.00
2019-03-30T20:17:24.298Z,68.73
2019-03-30T20:19:54.658Z,76.83
2019-03-30T20:22:25.039Z,86.80
2019-03-30T20:24:55.559Z,90.13
2019-03-30T20:27:26.164Z,68.33
2019-03-30T20:29:56.633Z,59.93
2019-03-30T20:32:27.100Z,76.97
2019-03-30T20:34:57.760Z,86.10
2019-03-30T20:37:28.358Z,70.00
2019-03-30T20:39:59.949Z,61.00
2019-03-30T20:42:30.510Z,67.20
2019-03-30T20:45:00.976Z,44.80
2019-03-30T20:47:31.252Z,76.50
2019-03-30T20:50:01.746Z,82.90
2019-03-30T20:52:32.776Z,70.93
2019-03-30T20:55:03.682Z,70.37
2019-03-30T20:57:34.184Z,70.77
2019-03-30T21:00:05.903Z,73.23
2019-03-30T21:02:36.226Z,52.53
2019-03-30T21:05:08.376Z,51.07
2019-03-30T21:07:41.764Z,72.93
2019-03-30T21:10:14.396Z,69.40
2019-03-30T21:12:44.122Z,68.83
2019-03-30T21:15:14.723Z,79.27
2019-03-30T21:17:45.147Z,84.93
2019-03-30T21:20:17.426Z,61.80
2019-03-30T21:22:47.972Z,77.13
2019-03-30T21:25:18.395Z,90.93
2019-03-30T21:27:48.923Z,68.67
2019-03-30T21:30:19.562Z,85.27
2019-03-30T21:32:50.044Z,75.67
2019-03-30T21:35:29.380Z,65.57
2019-03-30T21:37:59.862Z,76.33
2019-03-30T21:40:39.467Z,59.97
2019-03-30T21:43:09.963Z,49.90
2019-03-30T21:45:40.250Z,39.67
2019-03-30T21:48:10.679Z,41.50
2019-03-30T21:50:41.321Z,62.03
2019-03-30T21:53:11.921Z,70.90
2019-03-30T21:55:42.445Z,58.80
2019-03-30T21:58:13.335Z,65.67
2019-03-30T22:00:43.787Z,67.17
2019-03-30T22:03:14.353Z,71.53
2019-03-30T22:05:44.784Z,64.40
2019-03-30T22:08:17.188Z,83.30
2019-03-30T22:10:47.390Z,54.90
2019-03-30T22:13:21.261Z,65.53
2019-03-30T22:19:22.425Z,58.73
2019-03-30T22:21:52.946Z,91.83
2019-03-30T22:24:23.521Z,85.13
2019-03-30T22:26:54.103Z,64.07
2019-03-30T22:29:24.659Z,58.30
2019-03-30T22:31:55.028Z,47.20
2019-03-30T22:34:25.671Z,55.27
2019-03-30T22:36:56.194Z,82.00
2019-03-30T22:39:26.764Z,64.73
2019-03-30T22:41:57.298Z,61.97
2019-03-30T22:44:27.816Z,85.70
2019-03-30T22:46:58.314Z,56.33
2019-03-30T22:49:28.845Z,87.77
2019-03-30T22:52:00.263Z,74.50
2019-03-30T22:54:30.683Z,65.33
2019-03-30T22:57:01.511Z,80.63
2019-03-30T22:59:32.043Z,87.00
2019-03-30T23:02:02.594Z,82.53
2019-03-30T23:04:33.045Z,69.00
2019-03-30T23:07:03.595Z,72.20
2019-03-30T23:09:34.119Z,58.80
2019-03-30T23:12:04.585Z,94.20
2019-03-30T23:14:35.095Z,94.80
2019-03-30T23:17:06.143Z,98.00
2019-03-30T23:19:36.637Z,109.33
2019-03-30T23:22:07.252Z,91.10
2019-03-30T23:24:37.806Z,103.87
2019-03-30T23:27:08.297Z,91.30
2019-03-30T23:29:38.864Z,95.07
2019-03-30T23:32:09.359Z,106.67
2019-03-30T23:34:40.505Z,93.07
2019-03-30T23:37:11.046Z,78.80
2019-03-30T23:39:41.503Z,102.90
2019-03-30T23:42:11.848Z,78.37
2019-03-30T23:44:42.239Z,93.93
2019-03-30T23:47:12.781Z,96.80
2019-03-30T23:49:43.208Z,80.97
2019-03-30T23:52:13.785Z,80.93
2019-03-30T23:54:44.293Z,71.33
2019-03-30T23:57:14.837Z,69.67
2019-03-30T23:59:47.054Z,81.40
